Time;durP1;ratioP1;P1;durP2;ratioP2;P2;SDS_P1;SDS_P2;PMS_P1;PMS_P2;Temp;Humidity;BMP_temperature;BMP_pressure;BME280_temperature;BME280_humidity;BME280_pressure;Samples;Min_cycle;Max_cycle;Signal;HPM_P1;HPM_P2
2023/05/05 00:00:07;;;;;;;;;;;;;;;;;;6224158;22;20387;-83
2023/05/05 00:02:33;;;;;;;;;;;;;;;;;;6234000;22;20291;-82
2023/05/05 00:05:08;;;;;;;;;;;;;;;;;;6212070;22;19915;-82
2023/05/05 00:07:34;;;;;;;;;;;;;;;;;;6264833;22;20328;-83
2023/05/05 00:10:00;;;;;;;;;;;;;;;;;;6212444;22;19915;-83
2023/05/05 00:12:26;;;;;;;;;;;;;;;;;;6234216;22;19919;-83
2023/05/05 00:14:52;;;;;;;;;;;;;;;;;;6236917;22;20368;-83
2023/05/05 00:17:18;;;;;;;;;;;;;;;;;;6206615;22;20000;-83
2023/05/05 00:19:44;;;;;;;;;;;;;;;;;;6236073;22;19915;-82
2023/05/05 00:22:10;;;;;;;;;;;;;;;;;;6206394;22;20339;-83
2023/05/05 00:24:36;;;;;;;;;;;;;;;;;;6210398;22;19934;-83
2023/05/05 00:27:05;;;;;;;;;;;;;;;;;;6233773;22;19923;-83
2023/05/05 00:29:31;;;;;;;;;;;;;;;;;;6235249;22;19926;-83
2023/05/05 00:31:57;;;;;;;;;;;;;;;;;;6208354;22;19919;-83
2023/05/05 00:34:23;;;;;;;;;;;;;;;;;;6206918;22;19919;-83
2023/05/05 00:36:49;;;;;;;;;;;;;;;;;;6260674;22;19969;-83
2023/05/05 00:39:15;;;;;;;;;;;;;;;;;;6230225;22;19919;-83
2023/05/05 00:41:41;;;;;;;;;;;;;;;;;;6233194;22;20390;-83
2023/05/05 00:44:07;;;;;;;;;;;;;;;;;;6258391;22;19919;-82
2023/05/05 00:46:33;;;;;;;;;;;;;;;;;;6211467;22;20260;-83
2023/05/05 00:49:02;;;;;;;;;;;;;;;;;;6237180;22;19915;-83
2023/05/05 00:51:28;;;;;;;;;;;;;;;;;;6234819;22;19930;-83
2023/05/05 00:53:54;;;;;;;;;;;;;;;;;;6238367;22;19919;-83
2023/05/05 00:56:20;;;;;;;;;;;;;;;;;;6235991;22;19921;-83
2023/05/05 00:58:46;;;;;;;;;;;;;;;;;;6211607;22;19923;-83
2023/05/05 01:01:12;;;;;;;;;;;;;;;;;;6236531;22;20434;-83
2023/05/05 01:03:38;;;;;;;;;;;;;;;;;;6236021;22;20303;-83
2023/05/05 01:06:04;;;;;;;;;;;;;;;;;;6207738;22;19968;-83
2023/05/05 01:08:31;;;;;;;;;;;;;;;;;;6210192;22;19919;-83
2023/05/05 01:10:57;;;;;;;;;;;;;;;;;;6237455;22;19922;-83
2023/05/05 01:13:23;;;;;;;;;;;;;;;;;;6233330;22;19986;-83
2023/05/05 01:15:49;;;;;;;;;;;;;;;;;;6211693;22;19920;-83
2023/05/05 01:18:15;;;;;;;;;;;;;;;;;;6231569;22;19923;-83
2023/05/05 01:20:41;;;;;;;;;;;;;;;;;;6210040;22;20300;-83
2023/05/05 01:23:07;;;;;;;;;;;;;;;;;;6232075;22;19920;-83
2023/05/05 01:25:33;;;;;;;;;;;;;;;;;;6235973;22;19954;-83
2023/05/05 01:27:59;;;;;;;;;;;;;;;;;;6212674;22;19919;-83
2023/05/05 01:30:25;;;;;;;;;;;;;;;;;;6208248;22;19919;-83
2023/05/05 01:32:53;;;;;;;;;;;;;;;;;;6209297;22;20230;-83
2023/05/05 01:35:20;;;;;;;;;;;;;;;;;;6206753;22;19919;-83
2023/05/05 01:37:46;;;;;;;;;;;;;;;;;;6210504;22;19955;-82
2023/05/05 01:40:12;;;;;;;;;;;;;;;;;;6206480;22;19961;-83
2023/05/05 01:42:38;;;;;;;;;;;;;;;;;;6210995;22;19998;-83
2023/05/05 01:45:04;;;;;;;;;;;;;;;;;;6209094;22;19919;-82
2023/05/05 01:47:30;;;;;;;;;;;;;;;;;;6238243;22;19930;-83
2023/05/05 01:49:56;;;;;;;;;;;;;;;;;;6261664;22;20805;-83
2023/05/05 01:52:22;;;;;;;;;;;;;;;;;;6207650;22;20027;-83
2023/05/05 01:54:48;;;;;;;;;;;;;;;;;;6210015;22;20345;-83
2023/05/05 01:57:14;;;;;;;;;;;;;;;;;;6209076;22;19923;-83
2023/05/05 01:59:39;;;;;;;;;;;;;;;;;;6234408;22;20327;-83
2023/05/05 02:02:05;;;;;;;;;;;;;;;;;;6234258;22;19919;-83
2023/05/05 02:04:31;;;;;;;;;;;;;;;;;;6209021;22;19927;-83
2023/05/05 02:06:57;;;;;;;;;;;;;;;;;;6211710;22;19915;-83
2023/05/05 02:09:23;;;;;;;;;;;;;;;;;;6207596;22;20054;-83
2023/05/05 02:11:49;;;;;;;;;;;;;;;;;;6233025;22;19915;-83
2023/05/05 02:14:15;;;;;;;;;;;;;;;;;;6207337;22;20408;-82
2023/05/05 02:16:41;;;;;;;;;;;;;;;;;;6238452;22;19923;-82
2023/05/05 02:19:07;;;;;;;;;;;;;;;;;;6208422;22;19995;-83
2023/05/05 02:21:33;;;;;;;;;;;;;;;;;;6210198;22;19919;-83
2023/05/05 02:23:59;;;;;;;;;;;;;;;;;;6236649;22;19923;-83
2023/05/05 02:26:25;;;;;;;;;;;;;;;;;;6233682;22;19919;-83
2023/05/05 02:28:51;;;;;;;;;;;;;;;;;;6212933;22;20336;-83
2023/05/05 02:31:17;;;;;;;;;;;;;;;;;;6209244;22;19941;-82
2023/05/05 02:33:43;;;;;;;;;;;;;;;;;;6211815;22;19921;-83
2023/05/05 02:36:09;;;;;;;;;;;;;;;;;;6233611;22;20287;-82
2023/05/05 02:38:35;;;;;;;;;;;;;;;;;;6234568;22;19981;-82
2023/05/05 02:41:01;;;;;;;;;;;;;;;;;;6265148;22;19915;-83
2023/05/05 02:43:27;;;;;;;;;;;;;;;;;;6210236;22;20395;-83
2023/05/05 02:45:53;;;;;;;;;;;;;;;;;;6211378;22;19927;-83
2023/05/05 02:48:19;;;;;;;;;;;;;;;;;;6210005;22;20442;-82
2023/05/05 02:50:45;;;;;;;;;;;;;;;;;;6239537;22;20252;-83
2023/05/05 02:53:11;;;;;;;;;;;;;;;;;;6212404;22;20066;-82
2023/05/05 02:55:37;;;;;;;;;;;;;;;;;;6214352;22;19986;-82
2023/05/05 02:58:03;;;;;;;;;;;;;;;;;;6235217;22;20003;-82
2023/05/05 03:00:29;;;;;;;;;;;;;;;;;;6212110;22;19919;-82
2023/05/05 03:02:55;;;;;;;;;;;;;;;;;;6232347;22;20280;-83
2023/05/05 03:05:21;;;;;;;;;;;;;;;;;;6233875;22;20285;-82
2023/05/05 03:07:47;;;;;;;;;;;;;;;;;;6209693;22;19919;-83
2023/05/05 03:10:16;;;;;;;;;;;;;;;;;;6210203;22;19972;-82
2023/05/05 03:12:42;;;;;;;;;;;;;;;;;;6237426;22;20375;-82
2023/05/05 03:15:08;;;;;;;;;;;;;;;;;;6209302;22;19915;-82
2023/05/05 03:17:35;;;;;;;;;;;;;;;;;;6210660;22;20351;-82
2023/05/05 03:20:06;;;;;;;;;;;;;;;;;;6222708;22;20447;-82
2023/05/05 03:22:32;;;;;;;;;;;;;;;;;;6210453;22;19994;-83
2023/05/05 03:24:58;;;;;;;;;;;;;;;;;;6209740;22;19959;-82
2023/05/05 03:27:24;;;;;;;;;;;;;;;;;;6232920;22;20216;-82
2023/05/05 03:29:50;;;;;;;;;;;;;;;;;;6232878;22;20244;-82
2023/05/05 03:32:16;;;;;;;;;;;;;;;;;;6233089;22;19969;-83
2023/05/05 03:34:42;;;;;;;;;;;;;;;;;;6235248;22;19927;-83
2023/05/05 03:37:08;;;;;;;;;;;;;;;;;;6230684;22;19984;-83
2023/05/05 03:39:34;;;;;;;;;;;;;;;;;;6235119;22;19920;-82
2023/05/05 03:42:00;;;;;;;;;;;;;;;;;;6209676;22;20045;-82
2023/05/05 03:44:26;;;;;;;;;;;;;;;;;;6205488;22;20272;-82
2023/05/05 03:46:52;;;;;;;;;;;;;;;;;;6207802;22;19962;-82
2023/05/05 03:49:18;;;;;;;;;;;;;;;;;;6231046;22;19946;-82
2023/05/05 03:51:44;;;;;;;;;;;;;;;;;;6207009;22;19919;-83
2023/05/05 03:54:10;;;;;;;;;;;;;;;;;;6206303;22;19996;-82
2023/05/05 03:56:36;;;;;;;;;;;;;;;;;;6210094;22;19922;-82
2023/05/05 03:59:02;;;;;;;;;;;;;;;;;;6233526;22;19989;-83
2023/05/05 04:01:28;;;;;;;;;;;;;;;;;;6229488;22;19985;-82
2023/05/05 04:03:55;;;;;;;;;;;;;;;;;;6208589;22;20111;-83
2023/05/05 04:06:21;;;;;;;;;;;;;;;;;;6229673;22;19919;-82
2023/05/05 04:08:47;;;;;;;;;;;;;;;;;;6209486;22;20221;-83
2023/05/05 04:11:13;;;;;;;;;;;;;;;;;;6205136;22;20084;-82
2023/05/05 04:13:39;;;;;;;;;;;;;;;;;;6234815;22;20260;-82
2023/05/05 04:16:05;;;;;;;;;;;;;;;;;;6230924;22;19926;-83
2023/05/05 04:18:31;;;;;;;;;;;;;;;;;;6210336;22;19923;-83
2023/05/05 04:20:59;;;;;;;;;;;;;;;;;;6207940;22;19938;-84
2023/05/05 04:23:33;;;;;;;;;;;;;;;;;;6209935;22;20258;-85
2023/05/05 04:28:53;;;;;;;;;;;;;;;;;;6237442;22;19986;-86
2023/05/05 04:31:31;;;;;;;;;;;;;;;;;;6234919;22;20461;-86
2023/05/05 04:34:08;;;;;;;;;;;;;;;;;;6231617;22;20026;-85
2023/05/05 04:36:37;;;;;;;;;;;;;;;;;;6212619;22;19919;-85
2023/05/05 04:39:12;;;;;;;;;;;;;;;;;;6232501;22;19927;-85
2023/05/05 04:41:38;;;;;;;;;;;;;;;;;;6208451;22;19926;-85
2023/05/05 04:44:04;;;;;;;;;;;;;;;;;;6208326;22;20259;-85
2023/05/05 04:46:30;;;;;;;;;;;;;;;;;;6212134;22;19957;-85
2023/05/05 04:51:58;;;;;;;;;;;;;;;;;;6238536;22;20248;-85
2023/05/05 04:54:24;;;;;;;;;;;;;;;;;;6215015;22;19919;-85
2023/05/05 04:56:50;;;;;;;;;;;;;;;;;;6239449;22;20670;-85
2023/05/05 04:59:16;;;;;;;;;;;;;;;;;;6236115;22;19919;-85
2023/05/05 05:01:45;;;;;;;;;;;;;;;;;;6212795;22;20249;-85
2023/05/05 05:04:12;;;;;;;;;;;;;;;;;;6208483;22;19921;-84
2023/05/05 05:06:38;;;;;;;;;;;;;;;;;;6236190;22;20293;-85
2023/05/05 05:09:04;;;;;;;;;;;;;;;;;;6209208;22;20274;-85
2023/05/05 05:11:30;;;;;;;;;;;;;;;;;;6211047;22;19943;-85
2023/05/05 05:13:58;;;;;;;;;;;;;;;;;;6213370;22;19934;-84
2023/05/05 05:16:27;;;;;;;;;;;;;;;;;;6209518;22;19981;-84
2023/05/05 05:18:53;;;;;;;;;;;;;;;;;;6235984;22;20247;-84
2023/05/05 05:21:19;;;;;;;;;;;;;;;;;;6236781;22;19938;-84
2023/05/05 05:23:46;;;;;;;;;;;;;;;;;;6236388;22;19919;-84
2023/05/05 05:26:12;;;;;;;;;;;;;;;;;;6234594;22;20285;-84
2023/05/05 05:28:38;;;;;;;;;;;;;;;;;;6210855;22;20070;-84
2023/05/05 05:31:06;;;;;;;;;;;;;;;;;;6211886;22;19994;-84
2023/05/05 05:36:36;;;;;;;;;;;;;;;;;;6272570;22;20233;-83
2023/05/05 05:39:05;;;;;;;;;;;;;;;;;;6210125;22;19938;-84
2023/05/05 05:41:40;;;;;;;;;;;;;;;;;;6213193;22;20018;-85
2023/05/05 05:44:06;;;;;;;;;;;;;;;;;;6233692;22;20414;-84
2023/05/05 05:46:32;;;;;;;;;;;;;;;;;;6209728;22;19919;-84
2023/05/05 05:48:58;;;;;;;;;;;;;;;;;;6211999;22;20244;-85
2023/05/05 05:51:27;;;;;;;;;;;;;;;;;;6208201;22;19923;-85
2023/05/05 05:53:53;;;;;;;;;;;;;;;;;;6207930;22;20296;-84
2023/05/05 05:56:27;;;;;;;;;;;;;;;;;;6208770;22;20284;-84
2023/05/05 05:58:53;;;;;;;;;;;;;;;;;;6209513;22;19977;-84
2023/05/05 06:01:19;;;;;;;;;;;;;;;;;;6236493;22;19984;-84
2023/05/05 06:03:47;;;;;;;;;;;;;;;;;;6210300;22;19915;-86
2023/05/05 06:06:26;;;;;;;;;;;;;;;;;;6209570;22;19926;-85
2023/05/05 06:08:52;;;;;;;;;;;;;;;;;;6236844;22;20290;-85
2023/05/05 06:11:18;;;;;;;;;;;;;;;;;;6208038;22;19919;-85
2023/05/05 06:13:49;;;;;;;;;;;;;;;;;;6263771;22;20650;-85
2023/05/05 06:16:15;;;;;;;;;;;;;;;;;;6233669;22;19915;-84
2023/05/05 06:18:44;;;;;;;;;;;;;;;;;;6210209;22;19953;-85
2023/05/05 06:21:13;;;;;;;;;;;;;;;;;;6208589;22;19921;-84
2023/05/05 06:23:42;;;;;;;;;;;;;;;;;;6209013;22;19988;-84
2023/05/05 06:26:11;;;;;;;;;;;;;;;;;;6206644;22;20320;-84
2023/05/05 06:28:40;;;;;;;;;;;;;;;;;;6210936;22;19941;-84
2023/05/05 06:31:16;;;;;;;;;;;;;;;;;;6207758;22;19919;-84
2023/05/05 06:33:42;;;;;;;;;;;;;;;;;;6233840;22;19990;-84
2023/05/05 06:36:15;;;;;;;;;;;;;;;;;;6232445;22;19923;-84
2023/05/05 06:38:41;;;;;;;;;;;;;;;;;;6209758;22;19923;-84
2023/05/05 06:41:07;;;;;;;;;;;;;;;;;;6206359;22;19919;-84
2023/05/05 06:43:35;;;;;;;;;;;;;;;;;;6209401;22;19919;-84
2023/05/05 06:46:01;;;;;;;;;;;;;;;;;;6232629;22;19994;-84
2023/05/05 06:48:27;;;;;;;;;;;;;;;;;;6204041;22;20013;-83
2023/05/05 06:50:53;;;;;;;;;;;;;;;;;;6235135;22;19915;-84
2023/05/05 06:53:20;;;;;;;;;;;;;;;;;;6209889;22;20020;-83
2023/05/05 06:55:46;;;;;;;;;;;;;;;;;;6210884;22;20317;-83
2023/05/05 06:58:12;;;;;;;;;;;;;;;;;;6206914;22;20360;-83
2023/05/05 07:00:38;;;;;;;;;;;;;;;;;;6210038;22;19919;-83
2023/05/05 07:03:04;;;;;;;;;;;;;;;;;;6235300;22;20323;-83
2023/05/05 07:05:30;;;;;;;;;;;;;;;;;;6207081;22;19919;-83
2023/05/05 07:07:56;;;;;;;;;;;;;;;;;;6234884;22;19968;-83
2023/05/05 07:10:22;;;;;;;;;;;;;;;;;;6208536;22;19958;-83
2023/05/05 07:12:48;;;;;;;;;;;;;;;;;;6208768;22;19919;-83
2023/05/05 07:15:14;;;;;;;;;;;;;;;;;;6207085;22;19919;-83
2023/05/05 07:17:40;;;;;;;;;;;;;;;;;;6210683;22;19923;-83
2023/05/05 07:20:06;;;;;;;;;;;;;;;;;;6208863;22;20315;-83
2023/05/05 07:22:32;;;;;;;;;;;;;;;;;;6237010;22;19986;-83
2023/05/05 07:24:57;;;;;;;;;;;;;;;;;;6210659;22;19915;-83
2023/05/05 07:27:23;;;;;;;;;;;;;;;;;;6230255;22;20095;-83
2023/05/05 07:29:50;;;;;;;;;;;;;;;;;;6210598;22;19923;-84
2023/05/05 07:32:18;;;;;;;;;;;;;;;;;;6208410;22;19977;-83
2023/05/05 07:34:44;;;;;;;;;;;;;;;;;;6211842;22;19916;-83
2023/05/05 07:37:10;;;;;;;;;;;;;;;;;;6234020;22;20449;-83
2023/05/05 07:39:36;;;;;;;;;;;;;;;;;;6210997;22;19919;-83
2023/05/05 07:42:02;;;;;;;;;;;;;;;;;;6211373;22;19927;-83
2023/05/05 07:44:28;;;;;;;;;;;;;;;;;;6207016;22;20185;-83
2023/05/05 07:46:54;;;;;;;;;;;;;;;;;;6235418;22;19919;-83
2023/05/05 07:49:20;;;;;;;;;;;;;;;;;;6257792;22;20001;-82
2023/05/05 07:51:49;;;;;;;;;;;;;;;;;;6209562;22;20337;-83
2023/05/05 07:54:15;;;;;;;;;;;;;;;;;;6232544;22;19919;-83
2023/05/05 07:56:41;;;;;;;;;;;;;;;;;;6207222;22;19919;-82
2023/05/05 07:59:07;;;;;;;;;;;;;;;;;;6231757;22;19962;-83
2023/05/05 08:01:32;;;;;;;;;;;;;;;;;;6208404;22;19966;-82
2023/05/05 08:03:58;;;;;;;;;;;;;;;;;;6206222;22;20232;-83
2023/05/05 08:06:26;;;;;;;;;;;;;;;;;;6205425;22;19920;-83
2023/05/05 08:08:52;;;;;;;;;;;;;;;;;;6210681;22;19955;-83
2023/05/05 08:11:18;;;;;;;;;;;;;;;;;;6211934;22;19915;-83
2023/05/05 08:13:44;;;;;;;;;;;;;;;;;;6238596;22;19919;-82
2023/05/05 08:16:10;;;;;;;;;;;;;;;;;;6206789;22;19919;-82
2023/05/05 08:18:37;;;;;;;;;;;;;;;;;;6233958;22;19924;-82
2023/05/05 08:21:06;;;;;;;;;;;;;;;;;;6232992;22;19919;-82
2023/05/05 08:23:32;;;;;;;;;;;;;;;;;;6209938;22;19923;-82
2023/05/05 08:25:58;;;;;;;;;;;;;;;;;;6207966;22;19986;-82
2023/05/05 08:28:24;;;;;;;;;;;;;;;;;;6207241;22;20830;-83
2023/05/05 08:30:50;;;;;;;;;;;;;;;;;;6209380;22;19961;-82
2023/05/05 08:33:16;;;;;;;;;;;;;;;;;;6207478;22;19919;-82
2023/05/05 08:35:42;;;;;;;;;;;;;;;;;;6209346;22;19927;-82
2023/05/05 08:38:08;;;;;;;;;;;;;;;;;;6232477;22;20369;-83
2023/05/05 08:40:34;;;;;;;;;;;;;;;;;;6210161;22;20313;-82
2023/05/05 08:43:00;;;;;;;;;;;;;;;;;;6235655;22;19919;-83
2023/05/05 08:45:27;;;;;;;;;;;;;;;;;;6210622;22;19915;-83
2023/05/05 08:47:57;;;;;;;;;;;;;;;;;;6259160;22;20356;-83
2023/05/05 08:50:23;;;;;;;;;;;;;;;;;;6234376;22;19955;-83
2023/05/05 08:52:49;;;;;;;;;;;;;;;;;;6233857;22;19915;-83
2023/05/05 08:55:15;;;;;;;;;;;;;;;;;;6234467;22;20413;-84
2023/05/05 08:57:41;;;;;;;;;;;;;;;;;;6207915;22;19924;-83
2023/05/05 09:00:08;;;;;;;;;;;;;;;;;;6203243;22;20003;-83
2023/05/05 09:02:34;;;;;;;;;;;;;;;;;;6208959;22;20371;-84
2023/05/05 09:05:03;;;;;;;;;;;;;;;;;;6208033;22;19919;-83
2023/05/05 09:07:29;;;;;;;;;;;;;;;;;;6210112;22;19990;-83
2023/05/05 09:09:55;;;;;;;;;;;;;;;;;;6211678;22;20289;-84
2023/05/05 09:12:21;;;;;;;;;;;;;;;;;;6209171;22;19923;-83
2023/05/05 09:14:47;;;;;;;;;;;;;;;;;;6210612;22;20305;-83
2023/05/05 09:17:13;;;;;;;;;;;;;;;;;;6207899;22;19999;-84
2023/05/05 09:19:39;;;;;;;;;;;;;;;;;;6209144;22;19915;-84
2023/05/05 09:22:05;;;;;;;;;;;;;;;;;;6232445;22;19919;-84
2023/05/05 09:24:31;;;;;;;;;;;;;;;;;;6209722;22;20028;-83
2023/05/05 09:26:59;;;;;;;;;;;;;;;;;;6234899;22;19919;-83
2023/05/05 09:29:25;;;;;;;;;;;;;;;;;;6230648;22;19988;-83
2023/05/05 09:31:51;;;;;;;;;;;;;;;;;;6234575;22;19980;-84
2023/05/05 09:34:17;;;;;;;;;;;;;;;;;;6208407;22;19919;-83
2023/05/05 09:36:46;;;;;;;;;;;;;;;;;;6209511;22;20349;-83
2023/05/05 09:39:12;;;;;;;;;;;;;;;;;;6230519;22;19934;-83
2023/05/05 09:41:38;;;;;;;;;;;;;;;;;;6236631;22;19919;-84
2023/05/05 09:44:04;;;;;;;;;;;;;;;;;;6206453;22;20404;-83
2023/05/05 09:46:30;;;;;;;;;;;;;;;;;;6210908;22;19915;-83
2023/05/05 09:48:56;;;;;;;;;;;;;;;;;;6235924;22;19923;-83
2023/05/05 09:51:22;;;;;;;;;;;;;;;;;;6206370;22;19923;-83
2023/05/05 09:53:48;;;;;;;;;;;;;;;;;;6211313;22;19915;-82
2023/05/05 09:56:14;;;;;;;;;;;;;;;;;;6229564;22;19972;-83
2023/05/05 09:58:40;;;;;;;;;;;;;;;;;;6231488;22;20347;-83
2023/05/05 10:01:09;;;;;;;;;;;;;;;;;;6228992;22;19919;-83
2023/05/05 10:03:35;;;;;;;;;;;;;;;;;;6239081;22;19928;-84
2023/05/05 10:06:03;;;;;;;;;;;;;;;;;;6235740;22;19919;-83
2023/05/05 10:08:30;;;;;;;;;;;;;;;;;;6213800;22;19915;-83
2023/05/05 10:10:56;;;;;;;;;;;;;;;;;;6237839;22;19945;-83
2023/05/05 10:13:22;;;;;;;;;;;;;;;;;;6211191;22;19919;-83
2023/05/05 10:15:48;;;;;;;;;;;;;;;;;;6240426;22;19945;-83
2023/05/05 10:18:14;;;;;;;;;;;;;;;;;;6232326;22;19923;-83
2023/05/05 10:20:40;;;;;;;;;;;;;;;;;;6211450;22;19942;-84
2023/05/05 10:23:06;;;;;;;;;;;;;;;;;;6208731;22;20335;-83
2023/05/05 10:25:32;;;;;;;;;;;;;;;;;;6211042;22;19919;-83
2023/05/05 10:27:58;;;;;;;;;;;;;;;;;;6211865;22;20316;-83
2023/05/05 10:30:24;;;;;;;;;;;;;;;;;;6208036;22;20005;-83
2023/05/05 10:32:50;;;;;;;;;;;;;;;;;;6232986;22;19941;-84
2023/05/05 10:35:16;;;;;;;;;;;;;;;;;;6208065;22;19934;-83
2023/05/05 10:37:42;;;;;;;;;;;;;;;;;;6235817;22;19919;-83
2023/05/05 10:40:09;;;;;;;;;;;;;;;;;;6232722;22;19919;-83
2023/05/05 10:42:35;;;;;;;;;;;;;;;;;;6231851;22;19919;-83
2023/05/05 10:45:01;;;;;;;;;;;;;;;;;;6209123;22;19919;-83
2023/05/05 10:47:27;;;;;;;;;;;;;;;;;;6206128;22;19915;-84
2023/05/05 10:49:53;;;;;;;;;;;;;;;;;;6210754;22;19915;-83
2023/05/05 10:52:19;;;;;;;;;;;;;;;;;;6234674;22;19919;-84
2023/05/05 10:54:45;;;;;;;;;;;;;;;;;;6235844;22;20017;-83
2023/05/05 10:57:11;;;;;;;;;;;;;;;;;;6208127;22;20482;-83
2023/05/05 10:59:37;;;;;;;;;;;;;;;;;;6235056;22;20281;-84
2023/05/05 11:02:03;;;;;;;;;;;;;;;;;;6208898;22;19922;-83
2023/05/05 11:04:30;;;;;;;;;;;;;;;;;;6236988;22;19915;-83
2023/05/05 11:06:56;;;;;;;;;;;;;;;;;;6211087;22;20367;-83
2023/05/05 11:09:22;;;;;;;;;;;;;;;;;;6216220;22;19973;-83
2023/05/05 11:11:48;;;;;;;;;;;;;;;;;;6242119;22;20255;-83
2023/05/05 11:14:14;;;;;;;;;;;;;;;;;;6206988;22;20413;-83
2023/05/05 11:16:40;;;;;;;;;;;;;;;;;;6261812;22;19919;-83
2023/05/05 11:19:06;;;;;;;;;;;;;;;;;;6208420;22;19923;-83
2023/05/05 11:21:32;;;;;;;;;;;;;;;;;;6232685;22;20019;-83
2023/05/05 11:23:58;;;;;;;;;;;;;;;;;;6230379;22;19919;-83
2023/05/05 11:26:25;;;;;;;;;;;;;;;;;;6261891;22;19919;-83
2023/05/05 11:28:51;;;;;;;;;;;;;;;;;;6234183;22;19926;-83
2023/05/05 11:31:17;;;;;;;;;;;;;;;;;;6232907;22;19919;-84
2023/05/05 11:33:43;;;;;;;;;;;;;;;;;;6207689;22;20235;-84
2023/05/05 11:36:09;;;;;;;;;;;;;;;;;;6210313;22;19916;-84
2023/05/05 11:38:35;;;;;;;;;;;;;;;;;;6212736;22;19923;-83
2023/05/05 11:41:01;;;;;;;;;;;;;;;;;;6210312;22;19973;-83
2023/05/05 11:43:28;;;;;;;;;;;;;;;;;;6210912;22;20022;-84
2023/05/05 11:45:55;;;;;;;;;;;;;;;;;;6215017;22;19982;-83
2023/05/05 11:48:23;;;;;;;;;;;;;;;;;;6210152;22;19915;-82
2023/05/05 11:50:50;;;;;;;;;;;;;;;;;;6235077;22;19937;-83
2023/05/05 11:53:18;;;;;;;;;;;;;;;;;;6211572;22;19964;-84
2023/05/05 11:55:53;;;;;;;;;;;;;;;;;;6240863;22;19922;-83
2023/05/05 11:58:19;;;;;;;;;;;;;;;;;;6211038;22;19923;-84
2023/05/05 12:00:46;;;;;;;;;;;;;;;;;;6213262;22;19977;-84
2023/05/05 12:03:12;;;;;;;;;;;;;;;;;;6211900;22;19919;-84
2023/05/05 12:05:38;;;;;;;;;;;;;;;;;;6240992;22;19930;-84
2023/05/05 12:08:04;;;;;;;;;;;;;;;;;;6210485;22;19922;-85
2023/05/05 12:10:30;;;;;;;;;;;;;;;;;;6240912;22;19989;-83
2023/05/05 12:12:56;;;;;;;;;;;;;;;;;;6209339;22;19970;-83
2023/05/05 12:15:23;;;;;;;;;;;;;;;;;;6235422;22;19919;-83
2023/05/05 12:17:51;;;;;;;;;;;;;;;;;;6212047;22;20006;-84
2023/05/05 12:20:17;;;;;;;;;;;;;;;;;;6231246;22;19926;-84
2023/05/05 12:22:44;;;;;;;;;;;;;;;;;;6212017;22;20242;-83
2023/05/05 12:25:09;;;;;;;;;;;;;;;;;;6232265;22;19930;-82
2023/05/05 12:27:35;;;;;;;;;;;;;;;;;;6210798;22;20007;-83
2023/05/05 12:30:01;;;;;;;;;;;;;;;;;;6236895;22;19919;-83
2023/05/05 12:32:27;;;;;;;;;;;;;;;;;;6210447;22;19919;-83
2023/05/05 12:34:54;;;;;;;;;;;;;;;;;;6211173;22;19965;-83
2023/05/05 12:37:20;;;;;;;;;;;;;;;;;;6233453;22;20491;-83
2023/05/05 12:39:46;;;;;;;;;;;;;;;;;;6236742;22;19919;-83
2023/05/05 12:42:12;;;;;;;;;;;;;;;;;;6208056;22;20332;-83
2023/05/05 12:44:38;;;;;;;;;;;;;;;;;;6236977;22;19926;-83
2023/05/05 12:47:04;;;;;;;;;;;;;;;;;;6234024;22;19951;-83
2023/05/05 12:49:32;;;;;;;;;;;;;;;;;;6233606;22;19926;-84
2023/05/05 12:51:59;;;;;;;;;;;;;;;;;;6265189;22;20344;-83
2023/05/05 12:54:28;;;;;;;;;;;;;;;;;;6212845;22;19919;-83
2023/05/05 12:56:55;;;;;;;;;;;;;;;;;;6235698;22;19923;-83
2023/05/05 12:59:21;;;;;;;;;;;;;;;;;;6234370;22;20363;-84
2023/05/05 13:01:47;;;;;;;;;;;;;;;;;;6237129;22;19915;-83
2023/05/05 13:04:13;;;;;;;;;;;;;;;;;;6239837;22;19916;-83
2023/05/05 13:06:39;;;;;;;;;;;;;;;;;;6240029;22;19915;-83
2023/05/05 13:09:05;;;;;;;;;;;;;;;;;;6238519;22;19926;-83
2023/05/05 13:11:31;;;;;;;;;;;;;;;;;;6240042;22;19929;-83
2023/05/05 13:13:57;;;;;;;;;;;;;;;;;;6237181;22;19981;-83
2023/05/05 13:16:23;;;;;;;;;;;;;;;;;;6208993;22;20227;-83
2023/05/05 13:18:49;;;;;;;;;;;;;;;;;;6211852;22;19997;-83
2023/05/05 13:21:15;;;;;;;;;;;;;;;;;;6236704;22;19919;-83
2023/05/05 13:23:42;;;;;;;;;;;;;;;;;;6215605;22;19924;-84
2023/05/05 13:26:08;;;;;;;;;;;;;;;;;;6212174;22;20002;-83
2023/05/05 13:28:34;;;;;;;;;;;;;;;;;;6214417;22;19951;-84
2023/05/05 13:31:06;;;;;;;;;;;;;;;;;;6214975;22;20325;-85
2023/05/05 13:33:32;;;;;;;;;;;;;;;;;;6237873;22;20297;-86
2023/05/05 13:36:14;;;;;;;;;;;;;;;;;;;;;
2023/05/05 13:44:52;;;;;;;;;;;;;;;;;;;;;
2023/05/05 13:47:37;;;;;;;;;;;;;;;;;;6209881;23;19923;-87
2023/05/05 13:50:22;;;;;;;;;;;;;;;;;;6111048;23;19988;-88
2023/05/05 13:56:05;;;;;;;;;;;;;;;;;;6184566;22;19930;-87
2023/05/05 13:58:31;;;;;;;;;;;;;;;;;;6267690;22;19923;-87
2023/05/05 14:00:57;;;;;;;;;;;;;;;;;;6239505;22;19919;-86
2023/05/05 14:03:23;;;;;;;;;;;;;;;;;;6235678;22;19973;-87
2023/05/05 14:05:49;;;;;;;;;;;;;;;;;;6211631;22;19954;-87
2023/05/05 14:08:16;;;;;;;;;;;;;;;;;;6210488;22;19915;-87
2023/05/05 14:10:42;;;;;;;;;;;;;;;;;;6213209;22;19919;-87
2023/05/05 14:13:08;;;;;;;;;;;;;;;;;;6234759;22;20348;-87
2023/05/05 14:15:34;;;;;;;;;;;;;;;;;;6213755;22;19923;-87
2023/05/05 14:18:00;;;;;;;;;;;;;;;;;;6238001;22;19930;-87
2023/05/05 14:20:26;;;;;;;;;;;;;;;;;;6209410;22;19915;-87
2023/05/05 14:22:53;;;;;;;;;;;;;;;;;;6211878;22;19919;-87
2023/05/05 14:25:19;;;;;;;;;;;;;;;;;;6236775;22;19919;-87
2023/05/05 14:27:45;;;;;;;;;;;;;;;;;;6264318;22;20331;-87
2023/05/05 14:30:11;;;;;;;;;;;;;;;;;;6237037;22;19915;-87
2023/05/05 14:32:37;;;;;;;;;;;;;;;;;;6237396;22;19994;-88
2023/05/05 14:35:03;;;;;;;;;;;;;;;;;;6238026;22;19919;-88
2023/05/05 14:37:30;;;;;;;;;;;;;;;;;;6212406;22;19948;-90
2023/05/05 14:39:57;;;;;;;;;;;;;;;;;;6214181;22;19962;-88
2023/05/05 14:42:22;;;;;;;;;;;;;;;;;;6210897;22;19981;-88
2023/05/05 14:44:48;;;;;;;;;;;;;;;;;;6237505;22;19919;-88
2023/05/05 14:47:14;;;;;;;;;;;;;;;;;;6208102;22;19919;-87
2023/05/05 14:49:40;;;;;;;;;;;;;;;;;;6237167;22;19942;-88
2023/05/05 14:52:06;;;;;;;;;;;;;;;;;;6235761;22;19958;-87
2023/05/05 14:54:32;;;;;;;;;;;;;;;;;;6215020;22;20482;-88
2023/05/05 14:56:58;;;;;;;;;;;;;;;;;;6211577;22;19930;-87
2023/05/05 14:59:26;;;;;;;;;;;;;;;;;;6233270;22;20336;-87
2023/05/05 15:01:52;;;;;;;;;;;;;;;;;;6235716;22;19957;-88
2023/05/05 15:04:18;;;;;;;;;;;;;;;;;;6209521;22;19919;-88
2023/05/05 15:06:44;;;;;;;;;;;;;;;;;;6214246;22;19918;-87
2023/05/05 15:09:10;;;;;;;;;;;;;;;;;;6210592;22;19919;-87
2023/05/05 15:11:36;;;;;;;;;;;;;;;;;;6238392;22;19916;-87
2023/05/05 15:14:02;;;;;;;;;;;;;;;;;;6209139;22;19922;-87
2023/05/05 15:16:28;;;;;;;;;;;;;;;;;;6261374;22;19920;-87
2023/05/05 15:18:55;;;;;;;;;;;;;;;;;;6265782;22;20362;-87
2023/05/05 15:21:21;;;;;;;;;;;;;;;;;;6203712;22;19926;-87
2023/05/05 15:23:47;;;;;;;;;;;;;;;;;;6237682;22;19919;-87
2023/05/05 15:26:13;;;;;;;;;;;;;;;;;;6235313;22;20021;-87
2023/05/05 15:28:40;;;;;;;;;;;;;;;;;;6240327;22;19924;-88
2023/05/05 15:31:06;;;;;;;;;;;;;;;;;;6234575;22;19981;-88
2023/05/05 15:33:32;;;;;;;;;;;;;;;;;;6211173;22;19919;-87
2023/05/05 15:35:58;;;;;;;;;;;;;;;;;;6214208;22;20324;-88
2023/05/05 15:38:24;;;;;;;;;;;;;;;;;;6238164;22;20526;-87
2023/05/05 15:40:50;;;;;;;;;;;;;;;;;;6265427;22;19919;-89
2023/05/05 15:43:16;;;;;;;;;;;;;;;;;;6235460;22;20308;-87
2023/05/05 15:45:42;;;;;;;;;;;;;;;;;;6265650;22;19934;-88
2023/05/05 15:48:09;;;;;;;;;;;;;;;;;;6262086;22;19919;-88
2023/05/05 15:50:35;;;;;;;;;;;;;;;;;;6237700;22;20067;-87
2023/05/05 15:53:00;;;;;;;;;;;;;;;;;;6237233;22;19919;-87
2023/05/05 15:55:29;;;;;;;;;;;;;;;;;;6233678;22;19926;-88
2023/05/05 15:57:55;;;;;;;;;;;;;;;;;;6235419;22;19923;-87
2023/05/05 16:00:21;;;;;;;;;;;;;;;;;;6234784;22;19926;-88
2023/05/05 16:02:47;;;;;;;;;;;;;;;;;;6211401;22;19915;-87
2023/05/05 16:05:13;;;;;;;;;;;;;;;;;;6211623;22;20358;-87
2023/05/05 16:07:39;;;;;;;;;;;;;;;;;;6236816;22;20000;-87
2023/05/05 16:10:05;;;;;;;;;;;;;;;;;;6235281;22;20451;-88
2023/05/05 16:12:31;;;;;;;;;;;;;;;;;;6211337;22;20457;-87
2023/05/05 16:14:57;;;;;;;;;;;;;;;;;;6238622;22;20252;-87
2023/05/05 16:17:23;;;;;;;;;;;;;;;;;;6235037;22;19927;-87
2023/05/05 16:19:49;;;;;;;;;;;;;;;;;;6237279;22;20287;-87
2023/05/05 16:22:15;;;;;;;;;;;;;;;;;;6209786;22;19919;-87
2023/05/05 16:24:41;;;;;;;;;;;;;;;;;;6235405;22;19977;-88
2023/05/05 16:27:07;;;;;;;;;;;;;;;;;;6209915;22;19989;-87
2023/05/05 16:29:33;;;;;;;;;;;;;;;;;;6238500;22;19919;-87
2023/05/05 16:31:59;;;;;;;;;;;;;;;;;;6239499;22;19922;-86
2023/05/05 16:34:25;;;;;;;;;;;;;;;;;;6237944;22;19919;-86
2023/05/05 16:36:52;;;;;;;;;;;;;;;;;;6211995;22;20100;-87
2023/05/05 16:39:18;;;;;;;;;;;;;;;;;;6234539;22;19919;-87
2023/05/05 16:41:44;;;;;;;;;;;;;;;;;;6238528;22;19945;-87
2023/05/05 16:44:10;;;;;;;;;;;;;;;;;;6236954;22;19916;-87
2023/05/05 16:46:36;;;;;;;;;;;;;;;;;;6214004;22;19946;-87
2023/05/05 16:49:02;;;;;;;;;;;;;;;;;;6237260;22;19919;-87
2023/05/05 16:51:28;;;;;;;;;;;;;;;;;;6206714;22;19926;-87
2023/05/05 16:53:54;;;;;;;;;;;;;;;;;;6211307;22;19922;-87
2023/05/05 16:56:20;;;;;;;;;;;;;;;;;;6236516;22;19923;-87
2023/05/05 16:58:46;;;;;;;;;;;;;;;;;;6214696;22;19919;-87